Time,TemperatureF,DewpointF,PressureIn,WindDirection,WindDirectionDegrees,WindSpeedMPH,WindSpeedGustMPH,Humidity,HourlyPrecipIn,Conditions,Clouds,dailyrainin,SoftwareType,DateUTC
2013-09-30 00:23:00,60.0,46.0,29.47,West,267,6.0,-999.0,59,-99.99,,,-99.99,,2013-09-30 05:23:00,
2013-09-30 00:43:00,60.0,45.0,29.48,West,259,8.0,-999.0,57,-99.99,,,-99.99,,2013-09-30 05:43:00,
2013-09-30 00:52:00,59.0,45.0,29.47,West,259,3.0,-999.0,60,-99.99,,,-99.99,,2013-09-30 05:52:00,
2013-09-30 01:12:00,58.0,44.0,29.47,West,259,4.0,-999.0,60,-99.99,,,-99.99,,2013-09-30 06:12:00,
2013-09-30 01:22:00,58.0,44.0,29.48,West,260,6.0,-999.0,60,-99.99,,,-99.99,,2013-09-30 06:22:00,
2013-09-30 01:52:00,59.0,42.0,29.48,West,279,9.0,-999.0,53,-99.99,,,-99.99,,2013-09-30 06:52:00,
2013-09-30 02:12:00,59.0,42.0,29.48,WNW,282,10.0,-999.0,53,-99.99,,,-99.99,,2013-09-30 07:12:00,
2013-09-30 02:22:00,58.0,41.0,29.48,WNW,282,8.0,-999.0,54,-99.99,,,-99.99,,2013-09-30 07:22:00,
2013-09-30 02:52:00,57.0,41.0,29.48,West,276,8.0,-999.0,55,-99.99,,,-99.99,,2013-09-30 07:52:00,
2013-09-30 03:12:00,57.0,40.0,29.48,West,271,10.0,-999.0,53,-99.99,,,-99.99,,2013-09-30 08:12:00,
2013-09-30 03:22:00,57.0,40.0,29.48,West,271,10.0,-999.0,53,-99.99,,,-99.99,,2013-09-30 08:22:00,
2013-09-30 03:52:00,57.0,39.0,29.47,West,260,7.0,-999.0,51,-99.99,,,-99.99,,2013-09-30 08:52:00,
2013-09-30 04:11:00,56.0,39.0,29.47,West,264,7.0,-999.0,53,-99.99,,,-99.99,,2013-09-30 09:11:00,
2013-09-30 04:22:00,54.0,39.0,29.47,West,263,7.0,-999.0,57,-99.99,,,-99.99,,2013-09-30 09:22:00,
2013-09-30 04:53:00,52.0,39.0,29.47,West,266,5.0,-999.0,61,-99.99,,,-99.99,,2013-09-30 09:53:00,
2013-09-30 05:13:00,52.0,39.0,29.47,WSW,250,2.0,-999.0,61,-99.99,,,-99.99,,2013-09-30 10:13:00,
2013-09-30 05:22:00,51.0,39.0,29.47,WSW,250,0.0,-999.0,64,-99.99,,,-99.99,,2013-09-30 10:22:00,
2013-09-30 05:53:00,50.0,38.0,29.48,WSW,246,3.0,-999.0,63,-99.99,,,-99.99,,2013-09-30 10:53:00,
2013-09-30 06:12:00,50.0,39.0,29.48,WSW,255,1.0,-999.0,65,-99.99,,,-99.99,,2013-09-30 11:12:00,
2013-09-30 06:22:00,48.0,38.0,29.48,WSW,254,2.0,-999.0,69,-99.99,,,-99.99,,2013-09-30 11:22:00,
2013-09-30 06:52:00,47.0,38.0,29.47,WSW,254,2.0,-999.0,72,-99.99,,,-99.99,,2013-09-30 11:52:00,
2013-09-30 07:12:00,47.0,38.0,29.47,WSW,254,4.0,-999.0,72,-99.99,,,-99.99,,2013-09-30 12:12:00,
2013-09-30 07:22:00,46.0,38.0,29.47,WSW,254,1.0,-999.0,74,-99.99,,,-99.99,,2013-09-30 12:22:00,
2013-09-30 07:52:00,46.0,39.0,29.46,WSW,253,2.0,-999.0,76,-99.99,,,-99.99,,2013-09-30 12:52:00,
2013-09-30 08:11:00,46.0,39.0,29.46,WSW,253,3.0,-999.0,76,-99.99,,,-99.99,,2013-09-30 13:11:00,
2013-09-30 08:22:00,45.0,39.0,29.47,WSW,237,3.0,-999.0,78,-99.99,,,-99.99,,2013-09-30 13:22:00,
2013-09-30 08:42:00,45.0,39.0,29.47,SW,232,2.0,-999.0,78,-99.99,,,-99.99,,2013-09-30 13:42:00,
2013-09-30 08:52:00,45.0,39.0,29.47,SW,232,1.0,-999.0,78,-99.99,,,-99.99,,2013-09-30 13:52:00,
2013-09-30 09:11:00,46.0,39.0,29.46,SSW,207,4.0,-999.0,77,-99.99,,,-99.99,,2013-09-30 14:11:00,
2013-09-30 09:22:00,48.0,41.0,29.46,SSW,206,2.0,-999.0,76,-99.99,,,-99.99,,2013-09-30 14:22:00,
2013-09-30 09:52:00,51.0,42.0,29.47,WSW,248,2.0,-999.0,71,-99.99,,,-99.99,,2013-09-30 14:52:00,
2013-09-30 10:11:00,53.0,43.0,29.47,WSW,246,3.0,-999.0,68,-99.99,,,-99.99,,2013-09-30 15:11:00,
2013-09-30 10:23:00,55.0,43.0,29.46,West,261,2.0,-999.0,65,-99.99,,,-99.99,,2013-09-30 15:23:00,
2013-09-30 10:45:00,57.0,44.0,29.46,SW,235,2.0,-999.0,61,-99.99,,,-99.99,,2013-09-30 15:45:00,
2013-09-30 10:54:00,59.0,44.0,29.46,SW,236,3.0,-999.0,57,-99.99,,,-99.99,,2013-09-30 15:54:00,
2013-09-30 11:14:00,60.0,44.0,29.47,SSW,207,6.0,-999.0,55,-99.99,,,-99.99,,2013-09-30 16:14:00,
2013-09-30 11:24:00,60.0,43.0,29.46,SSW,202,5.0,-999.0,54,-99.99,,,-99.99,,2013-09-30 16:24:00,
2013-09-30 11:44:00,61.0,43.0,29.46,SSW,205,5.0,-999.0,52,-99.99,,,-99.99,,2013-09-30 16:44:00,
2013-09-30 11:53:00,62.0,44.0,29.46,SSW,211,5.0,-999.0,51,-99.99,,,-99.99,,2013-09-30 16:53:00,
2013-09-30 12:13:00,63.0,42.0,29.45,SSW,206,7.0,-999.0,47,-99.99,,,-99.99,,2013-09-30 17:13:00,
2013-09-30 12:22:00,65.0,42.0,29.44,WSW,241,5.0,-999.0,43,-99.99,,,-99.99,,2013-09-30 17:22:00,
2013-09-30 12:53:00,66.0,40.0,29.43,SSW,204,8.0,-999.0,39,-99.99,,,-99.99,,2013-09-30 17:53:00,
2013-09-30 13:12:00,67.0,42.0,29.43,SSW,209,8.0,-999.0,40,-99.99,,,-99.99,,2013-09-30 18:12:00,
2013-09-30 13:22:00,67.0,41.0,29.42,SW,224,11.0,-999.0,39,-99.99,,,-99.99,,2013-09-30 18:22:00,
2013-09-30 13:53:00,67.0,41.0,29.41,South,188,11.0,-999.0,39,-99.99,,,-99.99,,2013-09-30 18:53:00,
2013-09-30 14:12:00,67.0,41.0,29.41,SW,225,10.0,-999.0,39,-99.99,,,-99.99,,2013-09-30 19:12:00,
2013-09-30 14:22:00,67.0,42.0,29.40,SSW,200,12.0,-999.0,40,-99.99,,,-99.99,,2013-09-30 19:22:00,
2013-09-30 14:42:00,69.0,44.0,29.40,SSW,209,10.0,-999.0,41,-99.99,,,-99.99,,2013-09-30 19:42:00,
2013-09-30 14:53:00,70.0,45.0,29.39,SSW,203,8.0,-999.0,41,-99.99,,,-99.99,,2013-09-30 19:53:00,
2013-09-30 15:13:00,70.0,45.0,29.38,South,172,8.0,-999.0,41,-99.99,,,-99.99,,2013-09-30 20:13:00,
2013-09-30 15:23:00,71.0,46.0,29.37,SSW,213,6.0,-999.0,41,-99.99,,,-99.99,,2013-09-30 20:23:00,
2013-09-30 15:53:00,71.0,45.0,29.36,SSW,213,8.0,-999.0,39,-99.99,,,-99.99,,2013-09-30 20:53:00,
2013-09-30 16:11:00,72.0,46.0,29.36,SSW,211,11.0,-999.0,40,-99.99,,,-99.99,,2013-09-30 21:11:00,
2013-09-30 16:22:00,72.0,46.0,29.36,SW,218,11.0,-999.0,40,-99.99,,,-99.99,,2013-09-30 21:22:00,
2013-09-30 16:54:00,71.0,45.0,29.36,SSW,205,10.0,-999.0,39,-99.99,,,-99.99,,2013-09-30 21:54:00,
2013-09-30 17:23:00,73.0,48.0,29.36,SSW,198,8.0,-999.0,41,-99.99,,,-99.99,,2013-09-30 22:23:00,
2013-09-30 17:43:00,72.0,46.0,29.36,SSW,206,7.0,-999.0,40,-99.99,,,-99.99,,2013-09-30 22:43:00,
2013-09-30 17:54:00,73.0,49.0,29.35,SSW,206,3.0,-999.0,42,-99.99,,,-99.99,,2013-09-30 22:54:00,
2013-09-30 18:12:00,73.0,47.0,29.34,SSW,213,7.0,-999.0,39,-99.99,,,-99.99,,2013-09-30 23:12:00,
2013-09-30 18:23:00,71.0,47.0,29.35,SSW,209,3.0,-999.0,42,-99.99,,,-99.99,,2013-09-30 23:23:00,
2013-09-30 18:53:00,69.0,48.0,29.34,SSW,209,0.0,-999.0,48,-99.99,,,-99.99,,2013-09-30 23:53:00,
2013-09-30 19:12:00,68.0,50.0,29.34,SSW,209,0.0,-999.0,52,-99.99,,,-99.99,,2013-10-01 00:12:00,
2013-09-30 19:22:00,66.0,50.0,29.35,SSW,209,0.0,-999.0,56,-99.99,,,-99.99,,2013-10-01 00:22:00,
2013-09-30 19:43:00,66.0,49.0,29.38,WSW,253,10.0,-999.0,55,-99.99,,,-99.99,,2013-10-01 00:43:00,
2013-09-30 20:21:00,55.0,50.0,29.45,West,281,17.0,-999.0,82,-99.99,,,-99.99,,2013-10-01 01:21:00,
2013-09-30 20:42:00,54.0,49.0,29.48,West,279,16.0,-999.0,84,-99.99,,,-99.99,,2013-10-01 01:42:00,
2013-09-30 20:52:00,54.0,50.0,29.47,West,280,13.0,-999.0,85,-99.99,,,-99.99,,2013-10-01 01:52:00,
2013-09-30 21:12:00,54.0,50.0,29.48,West,271,9.0,-999.0,87,-99.99,,,-99.99,,2013-10-01 02:12:00,
2013-09-30 21:22:00,53.0,49.0,29.46,WSW,256,1.0,-999.0,86,-99.99,,,-99.99,,2013-10-01 02:22:00,
2013-09-30 21:52:00,52.0,49.0,29.42,SE,146,1.0,-999.0,89,-99.99,,,-99.99,,2013-10-01 02:52:00,
2013-09-30 22:22:00,52.0,49.0,29.46,SE,140,0.0,-999.0,91,-99.99,,,-99.99,,2013-10-01 03:22:00,
2013-09-30 22:55:00,52.0,49.0,29.46,South,180,2.0,-999.0,90,-99.99,,,-99.99,,2013-10-01 03:55:00,
2013-09-30 23:14:00,52.0,49.0,29.47,SSW,209,2.0,-999.0,88,-99.99,,,-99.99,,2013-10-01 04:14:00,
2013-09-30 23:24:00,52.0,47.0,29.47,SW,232,4.0,-999.0,84,-99.99,,,-99.99,,2013-10-01 04:24:00,